Time;durP1;ratioP1;P1;durP2;ratioP2;P2;SDS_P1;SDS_P2;PMS_P1;PMS_P2;Temp;Humidity;BMP_temperature;BMP_pressure;BME280_temperature;BME280_humidity;BME280_pressure;Samples;Min_cycle;Max_cycle;Signal;HPM_P1;HPM_P2
2021/12/19 00:00:22;;;;;;;8.40;4.93;;;7.70;99.90;;;;;;5174165;27;20046;-73
2021/12/19 00:03:05;;;;;;;9.90;5.03;;;7.70;99.90;;;;;;5138600;27;20099;-74
2021/12/19 00:08:46;;;;;;;13.85;5.75;;;7.70;99.90;;;;;;5138369;27;20056;-73
2021/12/19 00:11:13;;;;;;;11.80;5.78;;;7.70;99.90;;;;;;5151866;27;20109;-74
2021/12/19 00:13:41;;;;;;;11.32;5.97;;;7.60;99.90;;;;;;5158574;27;20054;-74
2021/12/19 00:16:08;;;;;;;13.00;6.63;;;7.70;99.90;;;;;;5159208;27;20049;-74
2021/12/19 00:18:35;;;;;;;14.43;7.30;;;7.70;99.90;;;;;;5145122;27;20050;-74
2021/12/19 00:21:04;;;;;;;11.45;7.10;;;7.70;99.90;;;;;;5136795;27;20076;-73
2021/12/19 00:23:32;;;;;;;13.20;5.88;;;7.70;99.90;;;;;;5156585;27;20063;-74
2021/12/19 00:25:59;;;;;;;10.38;5.28;;;7.60;99.90;;;;;;5138195;27;20050;-74
2021/12/19 00:28:26;;;;;;;8.65;4.68;;;7.60;99.90;;;;;;5137226;27;20091;-74
2021/12/19 00:30:53;;;;;;;7.18;4.50;;;7.70;99.90;;;;;;5138151;27;20076;-74
2021/12/19 00:33:19;;;;;;;9.98;5.50;;;7.60;99.90;;;;;;5137340;27;20054;-73
2021/12/19 00:35:46;;;;;;;9.85;4.07;;;7.60;99.90;;;;;;5137988;27;20051;-73
2021/12/19 00:38:14;;;;;;;6.78;3.00;;;7.60;99.90;;;;;;5151426;27;20054;-74
2021/12/19 00:40:42;;;;;;;5.40;3.45;;;7.60;99.90;;;;;;5146130;27;20055;-74
2021/12/19 00:43:11;;;;;;;5.53;3.55;;;7.60;99.90;;;;;;5117594;27;20054;-74
2021/12/19 00:45:40;;;;;;;8.23;3.60;;;7.60;99.90;;;;;;5117615;27;20047;-74
2021/12/19 00:48:09;;;;;;;11.98;3.58;;;7.60;99.90;;;;;;5117054;27;20490;-74
2021/12/19 00:50:37;;;;;;;4.65;2.30;;;7.60;99.90;;;;;;5117353;27;20051;-74
2021/12/19 00:53:04;;;;;;;4.07;1.33;;;7.60;99.90;;;;;;5135352;27;20108;-74
2021/12/19 00:55:33;;;;;;;6.57;1.50;;;7.60;99.90;;;;;;5116255;27;20047;-74
2021/12/19 00:58:00;;;;;;;5.35;1.42;;;7.60;99.90;;;;;;5143937;27;20058;-73
2021/12/19 01:00:30;;;;;;;4.68;1.48;;;7.50;99.90;;;;;;5157877;27;20542;-73
2021/12/19 01:02:59;;;;;;;3.28;1.13;;;7.60;99.90;;;;;;5157642;27;20513;-73
2021/12/19 01:05:26;;;;;;;5.05;1.60;;;7.50;99.90;;;;;;5157869;27;20045;-73
2021/12/19 01:07:53;;;;;;;6.85;2.00;;;7.50;99.90;;;;;;5158137;27;20085;-74
2021/12/19 01:10:20;;;;;;;4.63;2.53;;;7.50;99.90;;;;;;5170389;27;20046;-74
2021/12/19 01:12:48;;;;;;;9.23;4.38;;;7.50;99.90;;;;;;5136799;27;20142;-75
2021/12/19 01:15:17;;;;;;;6.90;2.75;;;7.50;99.90;;;;;;5155392;27;20103;-73
2021/12/19 01:17:44;;;;;;;6.32;3.35;;;7.50;99.90;;;;;;5153072;27;20144;-75
2021/12/19 01:20:15;;;;;;;6.50;3.60;;;7.50;99.90;;;;;;5157954;27;20485;-74
2021/12/19 01:22:42;;;;;;;9.75;4.65;;;7.50;99.90;;;;;;5157418;27;20106;-74
2021/12/19 01:25:10;;;;;;;8.90;3.67;;;7.50;99.90;;;;;;5157484;27;20050;-73
2021/12/19 01:27:37;;;;;;;7.13;3.00;;;7.50;99.90;;;;;;5158737;27;20403;-74
2021/12/19 01:30:07;;;;;;;6.13;2.90;;;7.50;99.90;;;;;;5163229;27;20072;-73
2021/12/19 01:32:34;;;;;;;3.60;2.33;;;7.50;99.90;;;;;;5167700;27;20458;-73
2021/12/19 01:35:01;;;;;;;4.40;2.38;;;7.50;99.90;;;;;;5169249;27;20418;-74
2021/12/19 01:37:28;;;;;;;3.60;1.10;;;7.60;99.90;;;;;;5144888;27;20047;-74
2021/12/19 01:39:55;;;;;;;2.05;1.40;;;7.40;99.90;;;;;;5124400;27;20066;-74
2021/12/19 01:42:22;;;;;;;4.88;2.20;;;7.40;99.90;;;;;;5158069;27;20050;-74
2021/12/19 01:44:49;;;;;;;2.05;0.82;;;7.40;99.90;;;;;;5156905;27;20046;-72
2021/12/19 01:47:17;;;;;;;2.83;0.90;;;7.40;99.90;;;;;;5157386;27;20126;-74
2021/12/19 01:49:44;;;;;;;3.35;1.38;;;7.40;99.90;;;;;;5157429;27;20054;-74
2021/12/19 01:52:12;;;;;;;2.83;1.10;;;7.40;99.90;;;;;;5156666;27;20050;-74
2021/12/19 01:54:39;;;;;;;2.20;0.90;;;7.40;99.90;;;;;;5157058;27;20103;-74
2021/12/19 01:57:06;;;;;;;2.50;1.00;;;7.40;99.90;;;;;;5156344;27;20038;-74
2021/12/19 01:59:33;;;;;;;3.75;1.27;;;7.30;99.90;;;;;;5156215;27;20498;-73
2021/12/19 02:01:59;;;;;;;4.38;2.78;;;7.40;99.90;;;;;;5156756;27;20103;-74
2021/12/19 02:04:30;;;;;;;3.78;2.30;;;7.30;99.90;;;;;;5157259;27;20053;-74
2021/12/19 02:06:57;;;;;;;;;;;7.40;99.90;;;;;;5157225;27;20050;-75
2021/12/19 02:09:25;;;;;;;5.00;1.80;;;7.30;99.90;;;;;;5138042;27;19975;-74
2021/12/19 02:11:53;;;;;;;7.85;2.80;;;7.30;99.90;;;;;;5135733;27;20057;-74
2021/12/19 02:14:21;;;;;;;4.65;2.10;;;7.40;99.90;;;;;;5135718;27;20494;-73
2021/12/19 02:16:48;;;;;;;5.57;2.60;;;7.30;99.90;;;;;;5132848;27;20115;-73
2021/12/19 02:19:15;;;;;;;2.85;1.85;;;7.30;99.90;;;;;;5114853;28;20059;-73
2021/12/19 02:21:43;;;;;;;2.88;1.90;;;7.30;99.90;;;;;;5116175;28;20051;-74
2021/12/19 02:24:11;;;;;;;2.97;1.50;;;7.30;99.90;;;;;;5134034;28;20549;-75
2021/12/19 02:26:40;;;;;;;3.90;2.20;;;7.30;99.90;;;;;;5115498;28;20051;-73
2021/12/19 02:29:07;;;;;;;3.38;1.42;;;7.20;99.90;;;;;;5115903;28;20509;-74
2021/12/19 02:31:35;;;;;;;5.60;3.03;;;7.20;99.90;;;;;;5116185;28;20059;-74
2021/12/19 02:34:06;;;;;;;6.43;3.47;;;7.20;99.90;;;;;;5114387;28;20043;-73
2021/12/19 02:36:49;;;;;;;7.50;3.47;;;7.20;99.90;;;;;;5115293;28;20076;-73
2021/12/19 02:39:50;;;;;;;4.93;2.40;;;7.20;99.90;;;;;;5151300;27;20050;-74
2021/12/19 02:48:13;;;;;;;4.72;2.72;;;7.10;99.90;;;;;;5097131;28;20632;-75
2021/12/19 02:50:45;;;;;;;6.45;3.60;;;7.10;99.90;;;;;;5139066;27;20050;-74
2021/12/19 02:53:12;;;;;;;6.25;3.88;;;7.10;99.90;;;;;;5160923;27;20112;-74
2021/12/19 02:55:43;;;;;;;6.18;3.53;;;7.10;99.90;;;;;;5159860;27;20050;-74
2021/12/19 02:58:10;;;;;;;5.95;2.90;;;7.10;99.90;;;;;;5146042;27;20086;-73
2021/12/19 03:00:37;;;;;;;5.53;3.45;;;7.10;99.90;;;;;;5118976;27;20059;-74
2021/12/19 03:03:04;;;;;;;6.35;2.60;;;7.10;99.90;;;;;;5118934;27;20119;-75
2021/12/19 03:05:33;;;;;;;7.10;3.60;;;7.10;99.90;;;;;;5121763;27;20055;-75
2021/12/19 03:08:02;;;;;;;7.43;4.32;;;7.10;99.90;;;;;;5157905;27;20042;-74
2021/12/19 03:13:33;;;;;;;6.75;3.08;;;7.10;99.90;;;;;;5123405;27;20046;-74
2021/12/19 03:18:45;;;;;;;3.22;1.60;;;7.10;99.90;;;;;;5136224;27;20142;-73
2021/12/19 03:21:15;;;;;;;6.63;2.65;;;7.00;99.90;;;;;;5119043;27;20047;-74
2021/12/19 03:23:42;;;;;;;7.13;3.28;;;7.00;99.90;;;;;;5118679;27;20080;-72
2021/12/19 03:26:09;;;;;;;8.00;3.10;;;7.00;99.90;;;;;;5118401;27;20417;-73
2021/12/19 03:28:38;;;;;;;6.70;3.13;;;7.10;99.90;;;;;;5118654;27;20051;-73
2021/12/19 03:31:05;;;;;;;6.53;2.80;;;7.10;99.90;;;;;;5117896;27;20487;-73
2021/12/19 03:33:32;;;;;;;7.70;3.90;;;7.00;99.90;;;;;;5118738;27;20051;-73
2021/12/19 03:35:59;;;;;;;5.55;4.03;;;7.00;99.90;;;;;;5123222;27;20490;-73
2021/12/19 03:38:26;;;;;;;6.63;3.33;;;7.00;99.90;;;;;;5139420;27;20046;-73
2021/12/19 03:41:08;;;;;;;5.55;2.60;;;7.00;99.90;;;;;;5139413;27;20046;-74
2021/12/19 03:43:35;;;;;;;9.10;3.92;;;7.00;99.90;;;;;;5138496;27;20046;-73
2021/12/19 03:46:04;;;;;;;7.18;3.30;;;7.10;99.90;;;;;;5138711;27;20062;-73
2021/12/19 03:48:31;;;;;;;9.40;3.20;;;7.10;99.90;;;;;;5139001;27;20441;-73
2021/12/19 03:50:58;;;;;;;6.55;3.05;;;7.10;99.90;;;;;;5138089;27;20058;-73
2021/12/19 03:53:25;;;;;;;9.98;3.03;;;7.10;99.90;;;;;;5138751;27;20440;-73
2021/12/19 03:55:52;;;;;;;10.38;3.72;;;7.10;99.90;;;;;;5137152;27;20051;-73
2021/12/19 03:58:20;;;;;;;7.95;3.50;;;7.10;99.90;;;;;;5137729;27;20123;-73
2021/12/19 04:00:48;;;;;;;6.35;2.90;;;7.10;99.90;;;;;;5138566;27;20054;-72
2021/12/19 04:03:19;;;;;;;7.22;2.38;;;7.10;99.90;;;;;;5138858;27;20058;-73
2021/12/19 04:05:47;;;;;;;3.63;1.90;;;7.00;99.90;;;;;;5138219;27;20133;-72
2021/12/19 04:08:15;;;;;;;11.07;2.20;;;7.10;99.90;;;;;;5138389;27;20087;-73
2021/12/19 04:10:42;;;;;;;9.43;2.67;;;7.10;99.90;;;;;;5138186;27;20046;-73
2021/12/19 04:13:09;;;;;;;7.00;2.35;;;7.10;99.90;;;;;;5137512;27;20047;-73
2021/12/19 04:15:36;;;;;;;10.13;2.97;;;7.10;99.90;;;;;;5138128;27;20055;-73
2021/12/19 04:18:03;;;;;;;8.00;3.78;;;7.10;99.90;;;;;;5138285;27;20042;-73
2021/12/19 04:20:32;;;;;;;9.25;4.32;;;7.10;99.90;;;;;;5137353;27;20047;-73
2021/12/19 04:22:59;;;;;;;12.93;4.18;;;7.10;99.90;;;;;;5138247;27;20048;-74
2021/12/19 04:25:26;;;;;;;9.13;3.78;;;7.10;99.90;;;;;;5137787;27;20090;-74
2021/12/19 04:27:53;;;;;;;9.80;3.50;;;7.10;99.90;;;;;;5138418;27;20115;-72
2021/12/19 04:30:24;;;;;;;12.73;3.95;;;7.20;99.90;;;;;;5138528;27;20119;-72
2021/12/19 04:32:59;;;;;;;10.73;3.83;;;7.10;99.90;;;;;;5137711;27;20046;-72
2021/12/19 04:35:28;;;;;;;10.02;4.13;;;7.20;99.90;;;;;;5156188;27;20467;-72
2021/12/19 04:40:48;;;;;;;12.23;5.38;;;7.20;99.90;;;;;;5126893;27;20076;-73
2021/12/19 04:51:59;;;;;;;14.32;5.13;;;7.30;99.90;;;;;;5158597;27;20042;-74
2021/12/19 04:54:45;;;;;;;16.73;5.88;;;7.30;99.90;;;;;;5135963;27;20047;-73
2021/12/19 04:57:26;;;;;;;13.30;5.53;;;7.30;99.90;;;;;;5117138;27;20132;-73
2021/12/19 04:59:57;;;;;;;12.85;5.32;;;7.30;99.90;;;;;;5117059;27;20055;-74
2021/12/19 05:02:39;;;;;;;13.52;4.97;;;7.30;99.90;;;;;;5116593;27;20057;-74
2021/12/19 05:16:03;;;;;;;24.10;7.63;;;7.40;99.90;;;;;;5136600;27;20125;-74
2021/12/19 05:18:34;;;;;;;21.75;5.68;;;7.40;99.90;;;;;;5136890;27;20039;-74
2021/12/19 05:21:06;;;;;;;17.00;6.50;;;7.40;99.90;;;;;;5137230;27;20055;-74
2021/12/19 05:23:49;;;;;;;12.93;6.70;;;7.40;99.90;;;;;;5145877;27;20053;-73
2021/12/19 05:26:17;;;;;;;18.05;7.05;;;7.40;99.90;;;;;;5157837;27;20145;-74
2021/12/19 05:28:44;;;;;;;15.43;6.57;;;7.40;99.90;;;;;;5157433;27;20478;-74
2021/12/19 05:31:11;;;;;;;18.70;6.95;;;7.50;99.90;;;;;;5157756;27;20118;-74
2021/12/19 05:33:38;;;;;;;15.38;6.88;;;7.30;99.90;;;;;;5157468;27;20050;-74
2021/12/19 05:44:08;;;;;;;15.50;7.13;;;7.40;99.90;;;;;;5156543;27;20091;-73
2021/12/19 05:47:11;;;;;;;19.02;7.38;;;7.40;99.90;;;;;;5157570;27;20133;-72
2021/12/19 05:49:38;;;;;;;17.98;7.65;;;7.40;99.90;;;;;;5157244;27;20486;-73
2021/12/19 05:52:05;;;;;;;19.30;6.78;;;7.40;99.90;;;;;;5176182;27;20094;-73
2021/12/19 05:54:32;;;;;;;15.00;6.07;;;7.40;99.90;;;;;;5136285;27;20495;-73
2021/12/19 05:57:00;;;;;;;26.42;7.45;;;7.30;99.90;;;;;;5115438;27;20051;-74
2021/12/19 05:59:27;;;;;;;15.50;5.65;;;7.30;99.90;;;;;;5115974;27;20112;-74
2021/12/19 06:01:54;;;;;;;16.60;5.90;;;7.30;99.90;;;;;;5134080;27;20551;-74
2021/12/19 06:04:21;;;;;;;22.00;6.68;;;7.30;99.90;;;;;;5115425;27;20100;-74
2021/12/19 06:06:48;;;;;;;16.83;6.28;;;7.30;99.90;;;;;;5148917;27;20042;-74
2021/12/19 06:09:15;;;;;;;21.23;7.88;;;7.30;99.90;;;;;;5156859;27;20042;-74
2021/12/19 06:11:41;;;;;;;17.00;6.18;;;7.30;99.90;;;;;;5156739;27;20383;-74
2021/12/19 06:14:10;;;;;;;11.88;5.93;;;7.30;99.90;;;;;;5157212;27;20054;-75
2021/12/19 06:16:37;;;;;;;18.17;5.90;;;7.40;99.90;;;;;;5156894;27;20054;-75
2021/12/19 06:19:04;;;;;;;13.80;6.40;;;7.40;99.90;;;;;;5155194;27;20042;-73
2021/12/19 06:21:30;;;;;;;12.45;6.50;;;7.40;99.90;;;;;;5157112;27;20097;-73
2021/12/19 06:23:57;;;;;;;21.00;6.50;;;7.40;99.90;;;;;;5140285;27;20055;-74
2021/12/19 06:26:24;;;;;;;17.23;5.45;;;7.40;99.90;;;;;;5115592;28;20055;-74
2021/12/19 06:28:51;;;;;;;17.63;6.05;;;7.40;99.90;;;;;;5115684;28;20051;-73
2021/12/19 06:31:19;;;;;;;15.55;5.72;;;7.40;99.90;;;;;;5132979;28;20082;-72
2021/12/19 06:33:46;;;;;;;12.80;4.80;;;7.40;99.90;;;;;;5114708;28;20088;-72
2021/12/19 06:36:13;;;;;;;13.40;5.72;;;7.40;99.90;;;;;;5115480;28;20055;-73
2021/12/19 06:38:40;;;;;;;28.08;4.63;;;7.40;99.90;;;;;;5115318;28;20100;-72
2021/12/19 06:41:07;;;;;;;16.70;5.90;;;7.40;99.90;;;;;;5114931;28;20051;-72
2021/12/19 06:43:34;;;;;;;14.77;4.75;;;7.40;99.90;;;;;;5132647;28;20372;-73
2021/12/19 06:46:01;;;;;;;11.63;4.13;;;7.40;99.90;;;;;;5114861;28;20096;-73
2021/12/19 06:48:29;;;;;;;15.02;3.42;;;7.30;99.90;;;;;;5115014;28;20059;-73
2021/12/19 06:50:57;;;;;;;9.07;3.03;;;7.30;99.90;;;;;;5115144;28;20047;-73
2021/12/19 06:53:24;;;;;;;10.80;3.38;;;7.30;99.90;;;;;;5149247;27;20046;-73
2021/12/19 06:55:51;;;;;;;10.68;3.65;;;7.30;99.90;;;;;;5161671;27;20085;-72
2021/12/19 06:58:18;;;;;;;11.68;4.07;;;7.30;99.90;;;;;;5164745;27;20086;-72
2021/12/19 07:00:45;;;;;;;9.40;3.50;;;7.40;99.90;;;;;;5158585;27;20098;-70
2021/12/19 07:03:14;;;;;;;8.60;4.47;;;7.30;99.90;;;;;;5168196;27;20432;-71
2021/12/19 07:05:42;;;;;;;14.10;5.85;;;7.30;99.90;;;;;;5146776;27;20106;-71
2021/12/19 07:08:09;;;;;;;12.40;5.13;;;7.30;99.90;;;;;;5125818;28;20076;-71
2021/12/19 07:10:36;;;;;;;11.05;4.63;;;7.30;99.90;;;;;;5124172;28;20047;-71
2021/12/19 07:13:03;;;;;;;23.50;4.70;;;7.30;99.90;;;;;;5121914;28;20430;-72
2021/12/19 07:15:30;;;;;;;8.23;3.42;;;7.30;99.90;;;;;;5115545;28;20043;-72
2021/12/19 07:18:02;;;;;;;19.90;5.80;;;7.30;99.90;;;;;;5115041;28;20047;-73
2021/12/19 07:20:29;;;;;;;16.10;5.57;;;7.30;99.90;;;;;;5115493;28;20380;-74
2021/12/19 07:22:58;;;;;;;17.15;4.43;;;7.30;99.90;;;;;;5118214;27;20123;-72
2021/12/19 07:25:25;;;;;;;14.70;4.32;;;7.30;99.90;;;;;;5135215;27;20506;-72
2021/12/19 07:27:52;;;;;;;13.57;3.92;;;7.40;99.90;;;;;;5135488;27;20059;-73
2021/12/19 07:30:18;;;;;;;14.32;3.97;;;7.30;99.90;;;;;;5137858;27;20328;-73
2021/12/19 07:32:45;;;;;;;11.40;4.20;;;7.40;99.90;;;;;;5138941;27;20046;-73
2021/12/19 07:35:13;;;;;;;11.65;3.28;;;7.40;99.90;;;;;;5138439;27;20051;-74
2021/12/19 07:37:41;;;;;;;13.82;3.50;;;7.40;99.90;;;;;;5139167;27;20482;-74
2021/12/19 07:40:14;;;;;;;9.00;2.95;;;7.40;99.90;;;;;;5139743;27;20126;-73
2021/12/19 07:42:41;;;;;;;12.27;4.30;;;7.40;99.90;;;;;;5139128;27;20046;-73
2021/12/19 07:45:10;;;;;;;14.18;3.92;;;7.40;99.90;;;;;;5138947;27;20043;-72
2021/12/19 07:47:38;;;;;;;11.93;3.80;;;7.40;99.90;;;;;;5138875;27;20142;-72
2021/12/19 07:50:06;;;;;;;10.10;3.40;;;7.50;99.90;;;;;;5138267;27;20050;-73
2021/12/19 07:52:33;;;;;;;13.35;3.72;;;7.40;99.90;;;;;;5139236;27;20042;-71
2021/12/19 07:55:00;;;;;;;11.63;3.42;;;7.40;99.90;;;;;;5159267;27;20046;-72
2021/12/19 07:57:28;;;;;;;9.50;3.78;;;7.40;99.90;;;;;;5158712;27;20046;-72
2021/12/19 07:59:55;;;;;;;14.23;3.67;;;7.50;99.90;;;;;;5158958;27;20042;-73
2021/12/19 08:02:22;;;;;;;8.20;3.60;;;7.50;99.90;;;;;;5158878;27;20061;-72
2021/12/19 08:04:48;;;;;;;11.98;3.80;;;7.50;99.90;;;;;;5158221;27;20046;-72
2021/12/19 08:07:17;;;;;;;13.40;3.80;;;7.50;99.90;;;;;;5159069;27;20091;-73
2021/12/19 08:09:59;;;;;;;10.43;3.53;;;7.50;99.90;;;;;;5159678;27;20057;-73
2021/12/19 08:12:26;;;;;;;11.98;4.30;;;7.50;99.90;;;;;;5158628;27;20053;-72
2021/12/19 08:14:54;;;;;;;14.88;4.47;;;7.50;99.90;;;;;;5159269;27;20049;-72
2021/12/19 08:17:22;;;;;;;12.73;4.22;;;7.50;99.90;;;;;;5158657;27;20129;-72
2021/12/19 08:19:49;;;;;;;14.65;4.05;;;7.50;99.90;;;;;;5158880;27;20121;-73
2021/12/19 08:22:16;;;;;;;14.25;3.75;;;7.50;99.90;;;;;;5135810;27;20046;-71
2021/12/19 08:24:45;;;;;;;10.73;4.05;;;7.50;99.90;;;;;;5128219;27;20094;-72
2021/12/19 08:27:12;;;;;;;11.75;3.15;;;7.50;99.90;;;;;;5130844;27;20051;-72
2021/12/19 08:29:39;;;;;;;12.90;3.78;;;7.50;99.90;;;;;;5132418;27;20539;-71
2021/12/19 08:32:08;;;;;;;13.00;3.55;;;7.50;99.90;;;;;;5134617;27;20484;-72
2021/12/19 08:34:36;;;;;;;11.88;3.75;;;7.50;99.90;;;;;;5152860;27;20077;-72
2021/12/19 08:37:03;;;;;;;14.40;3.78;;;7.50;99.90;;;;;;5132735;27;20103;-71
2021/12/19 08:39:31;;;;;;;14.15;3.65;;;7.50;99.90;;;;;;5131094;27;20117;-72
2021/12/19 08:41:59;;;;;;;15.90;3.30;;;7.60;99.90;;;;;;5130695;27;20047;-71
2021/12/19 08:44:26;;;;;;;12.23;4.80;;;7.60;99.90;;;;;;5134054;27;20138;-72
2021/12/19 08:46:52;;;;;;;19.23;5.25;;;7.60;99.90;;;;;;5130504;27;20054;-71
2021/12/19 08:49:21;;;;;;;17.48;5.03;;;7.60;99.90;;;;;;5132436;27;20050;-73
2021/12/19 08:51:48;;;;;;;16.70;5.45;;;7.60;99.90;;;;;;5129047;27;20099;-72
2021/12/19 08:54:15;;;;;;;14.10;5.40;;;7.60;99.90;;;;;;5132948;27;20499;-72
2021/12/19 08:56:42;;;;;;;13.10;4.10;;;7.70;99.90;;;;;;5135356;27;20100;-71
2021/12/19 08:59:11;;;;;;;16.52;5.35;;;7.60;99.90;;;;;;5130829;27;20042;-72
2021/12/19 09:01:38;;;;;;;10.85;4.50;;;7.60;99.90;;;;;;5131351;27;20058;-73
2021/12/19 09:04:05;;;;;;;8.50;3.92;;;7.60;99.90;;;;;;5131610;27;20115;-72
2021/12/19 09:06:34;;;;;;;11.00;4.10;;;7.60;99.90;;;;;;5133360;27;20050;-72
2021/12/19 09:09:02;;;;;;;17.48;5.60;;;7.60;99.90;;;;;;5141468;27;20051;-71
2021/12/19 09:11:29;;;;;;;12.50;5.10;;;7.70;99.90;;;;;;5130226;27;20084;-71
2021/12/19 09:13:56;;;;;;;14.10;6.30;;;7.70;99.90;;;;;;5131278;27;20047;-72
2021/12/19 09:16:23;;;;;;;12.02;5.38;;;7.60;99.90;;;;;;5130628;27;20054;-71
2021/12/19 09:18:50;;;;;;;15.27;5.68;;;7.70;99.90;;;;;;5132607;27;20099;-72
2021/12/19 09:21:17;;;;;;;15.65;6.25;;;7.80;99.90;;;;;;5134069;27;20050;-72
2021/12/19 09:23:45;;;;;;;25.25;8.45;;;7.80;99.90;;;;;;5135223;27;20050;-72
2021/12/19 09:26:13;;;;;;;13.77;5.57;;;7.80;99.90;;;;;;5134189;27;20119;-73
2021/12/19 09:28:40;;;;;;;14.20;5.85;;;7.80;99.90;;;;;;5130868;27;20047;-71
2021/12/19 09:31:07;;;;;;;16.80;5.55;;;7.80;99.90;;;;;;5149622;27;20087;-72
2021/12/19 09:33:34;;;;;;;14.88;5.25;;;7.80;99.90;;;;;;5133049;27;20050;-72
2021/12/19 09:36:01;;;;;;;13.77;4.05;;;7.90;99.90;;;;;;5130946;27;20443;-71
2021/12/19 09:38:28;;;;;;;14.98;4.88;;;7.90;99.90;;;;;;5131315;27;20469;-72
2021/12/19 09:41:00;;;;;;;12.68;3.13;;;7.90;99.90;;;;;;5129825;27;20082;-73
2021/12/19 09:43:42;;;;;;;10.00;3.47;;;7.90;99.90;;;;;;5126908;27;20077;-74
2021/12/19 09:46:12;;;;;;;10.85;3.45;;;7.90;99.90;;;;;;5131778;27;20135;-72
2021/12/19 09:48:40;;;;;;;9.68;3.10;;;7.90;99.90;;;;;;5132958;27;20043;-71
2021/12/19 09:51:07;;;;;;;12.50;3.08;;;8.00;99.90;;;;;;5136787;27;20049;-72
2021/12/19 09:53:35;;;;;;;16.33;4.28;;;8.00;99.90;;;;;;5132357;27;20047;-71
2021/12/19 09:56:04;;;;;;;8.77;3.28;;;8.00;99.90;;;;;;5129601;27;20059;-70
2021/12/19 09:58:32;;;;;;;9.93;3.33;;;8.00;99.90;;;;;;5129848;27;20110;-72
2021/12/19 10:00:59;;;;;;;9.55;3.22;;;8.00;99.90;;;;;;5128685;27;20061;-72
2021/12/19 10:03:26;;;;;;;19.52;4.10;;;8.00;99.90;;;;;;5128641;27;20093;-73
2021/12/19 10:06:15;;;;;;;11.35;3.10;;;8.10;99.90;;;;;;5130563;27;20047;-73
2021/12/19 10:08:42;;;;;;;12.57;3.10;;;8.10;99.90;;;;;;5129492;27;20042;-73
2021/12/19 10:11:32;;;;;;;13.43;3.70;;;8.10;99.90;;;;;;5127529;27;20051;-73
2021/12/19 10:14:00;;;;;;;12.10;3.08;;;8.10;99.90;;;;;;5132436;27;20091;-73
2021/12/19 10:16:29;;;;;;;11.30;2.60;;;8.10;99.90;;;;;;5151011;27;20806;-72
2021/12/19 10:18:59;;;;;;;15.38;3.53;;;8.10;99.90;;;;;;5129138;27;20042;-72
2021/12/19 10:21:27;;;;;;;9.98;2.47;;;8.10;99.90;;;;;;5131797;27;20070;-72
2021/12/19 10:23:59;;;;;;;16.20;2.92;;;8.10;99.90;;;;;;5133159;27;20111;-73
2021/12/19 10:26:41;;;;;;;11.93;2.35;;;8.10;99.90;;;;;;5128473;27;20087;-72
2021/12/19 10:29:08;;;;;;;11.13;2.40;;;8.10;99.90;;;;;;5127556;27;20046;-72
2021/12/19 10:31:35;;;;;;;10.23;2.63;;;8.10;99.90;;;;;;5130372;27;20107;-72
2021/12/19 10:34:21;;;;;;;11.27;2.75;;;8.20;99.90;;;;;;5130702;27;20530;-72
2021/12/19 10:36:48;;;;;;;14.25;3.40;;;8.20;99.90;;;;;;5131002;27;20090;-73
2021/12/19 10:39:17;;;;;;;7.07;2.55;;;8.10;99.90;;;;;;5130221;27;20490;-72
2021/12/19 10:41:57;;;;;;;10.38;2.50;;;8.20;99.90;;;;;;5132512;27;20051;-71
2021/12/19 10:47:24;;;;;;;10.25;2.90;;;8.20;99.90;;;;;;5128926;27;20075;-72
2021/12/19 10:49:52;;;;;;;11.57;3.38;;;8.20;99.90;;;;;;5129172;27;20047;-72
2021/12/19 10:52:35;;;;;;;11.50;2.88;;;8.30;99.90;;;;;;5131368;27;20566;-72
2021/12/19 10:55:06;;;;;;;11.50;3.50;;;8.30;99.90;;;;;;5129003;27;20043;-73
2021/12/19 10:57:36;;;;;;;18.17;3.85;;;8.30;99.90;;;;;;5129536;27;20455;-73
2021/12/19 11:00:09;;;;;;;15.07;3.83;;;8.30;99.90;;;;;;5128099;27;20127;-74
2021/12/19 11:02:39;;;;;;;15.80;3.55;;;8.30;99.90;;;;;;5131909;27;20502;-73
2021/12/19 11:05:07;;;;;;;10.17;3.07;;;8.30;99.90;;;;;;5132726;27;20106;-73
2021/12/19 11:07:33;;;;;;;13.18;4.20;;;8.30;99.90;;;;;;5133990;27;20304;-74
2021/12/19 11:10:00;;;;;;;13.35;3.50;;;8.40;99.90;;;;;;5136445;27;20053;-73
2021/12/19 11:12:27;;;;;;;12.88;4.63;;;8.40;99.90;;;;;;5151557;27;20092;-72
2021/12/19 11:14:56;;;;;;;23.65;4.82;;;8.40;99.90;;;;;;5131587;27;20096;-72
2021/12/19 11:17:26;;;;;;;15.43;5.90;;;8.50;99.90;;;;;;5137131;27;20539;-73
2021/12/19 11:19:55;;;;;;;9.30;3.73;;;8.50;99.90;;;;;;5135603;27;20067;-71
2021/12/19 11:22:25;;;;;;;12.30;4.07;;;8.50;99.90;;;;;;5134097;27;20509;-71
2021/12/19 11:24:52;;;;;;;14.73;4.35;;;8.50;99.90;;;;;;5136326;27;20455;-72
2021/12/19 11:27:20;;;;;;;16.48;3.97;;;8.50;99.90;;;;;;5136900;27;20051;-72
2021/12/19 11:29:49;;;;;;;12.70;3.95;;;8.50;99.90;;;;;;5133423;27;20051;-71
2021/12/19 11:32:21;;;;;;;11.23;3.65;;;8.60;99.90;;;;;;5134935;27;20112;-71
2021/12/19 11:35:01;;;;;;;14.25;4.70;;;8.50;99.90;;;;;;5132717;27;20070;-71
2021/12/19 11:37:32;;;;;;;15.68;4.40;;;8.60;99.90;;;;;;5133822;27;20042;-71
2021/12/19 11:39:59;;;;;;;13.15;4.28;;;8.60;99.90;;;;;;5132693;27;20129;-72
2021/12/19 11:42:33;;;;;;;15.18;4.10;;;8.60;99.90;;;;;;5130158;27;20043;-71
2021/12/19 11:45:25;;;;;;;15.18;4.75;;;8.60;99.90;;;;;;5133954;27;20047;-72
2021/12/19 11:47:58;;;;;;;20.67;4.57;;;8.60;99.90;;;;;;5132335;27;20521;-72
2021/12/19 11:50:28;;;;;;;13.13;4.40;;;8.60;99.90;;;;;;5132801;27;20051;-73
2021/12/19 11:52:57;;;;;;;14.45;4.93;;;8.60;99.90;;;;;;5134548;27;20053;-72
2021/12/19 11:55:30;;;;;;;19.30;4.90;;;8.50;99.90;;;;;;5147899;27;20043;-73
2021/12/19 11:58:38;;;;;;;17.77;4.85;;;8.60;99.90;;;;;;5149909;27;20490;-72
2021/12/19 12:01:10;;;;;;;11.98;3.80;;;8.60;99.90;;;;;;5071249;28;20097;-72
2021/12/19 12:03:47;;;;;;;17.17;5.03;;;8.70;99.90;;;;;;5126610;27;20046;-71
2021/12/19 12:06:41;;;;;;;22.20;4.72;;;8.70;99.90;;;;;;5135215;27;20050;-73
2021/12/19 12:09:28;;;;;;;19.38;4.22;;;8.70;99.90;;;;;;5134267;27;20055;-72
2021/12/19 12:12:17;;;;;;;16.23;5.25;;;8.70;99.90;;;;;;5132349;27;20047;-72
2021/12/19 12:14:58;;;;;;;16.65;4.60;;;8.70;99.90;;;;;;5132645;27;20502;-72
2021/12/19 12:17:33;;;;;;;17.95;4.55;;;8.80;99.90;;;;;;5129854;27;20189;-72
2021/12/19 12:20:18;;;;;;;13.68;3.78;;;8.80;99.90;;;;;;5130978;27;20045;-72
2021/12/19 12:22:57;;;;;;;16.27;4.97;;;8.80;99.90;;;;;;5132010;27;20103;-72
2021/12/19 12:25:34;;;;;;;21.40;3.80;;;8.80;99.90;;;;;;5131941;27;20125;-73
2021/12/19 12:28:08;;;;;;;14.15;4.13;;;8.70;99.90;;;;;;5129148;27;20406;-73
2021/12/19 12:30:40;;;;;;;19.27;4.70;;;8.80;99.90;;;;;;5131226;27;20134;-73
2021/12/19 12:33:09;;;;;;;13.65;3.63;;;8.80;99.90;;;;;;5131543;27;20047;-72
2021/12/19 12:35:38;;;;;;;14.70;3.80;;;8.80;99.90;;;;;;5140990;27;20397;-73
2021/12/19 12:38:07;;;;;;;8.55;2.75;;;8.80;99.90;;;;;;5141335;27;20084;-74
2021/12/19 12:40:45;;;;;;;13.95;3.10;;;8.70;99.90;;;;;;5141678;27;20034;-72
2021/12/19 12:43:14;;;;;;;12.40;3.40;;;8.70;99.90;;;;;;5134925;27;20055;-73
2021/12/19 12:46:00;;;;;;;10.27;2.70;;;8.70;99.90;;;;;;5135292;27;20501;-72
2021/12/19 12:48:55;;;;;;;16.92;3.40;;;8.70;99.90;;;;;;5130788;27;20500;-73
2021/12/19 12:51:30;;;;;;;16.45;3.72;;;8.70;99.90;;;;;;5121244;27;20043;-72
2021/12/19 12:53:59;;;;;;;15.10;3.30;;;8.70;99.90;;;;;;5128263;27;20042;-73
2021/12/19 12:56:32;;;;;;;14.32;3.58;;;8.70;99.90;;;;;;5130328;27;20057;-73
2021/12/19 12:58:59;;;;;;;12.07;3.35;;;8.70;99.90;;;;;;5129315;27;20047;-73
2021/12/19 13:01:36;;;;;;;18.42;4.03;;;8.60;99.90;;;;;;5131405;27;20047;-75
2021/12/19 13:04:15;;;;;;;19.92;4.78;;;8.60;99.90;;;;;;5131002;27;20150;-74
2021/12/19 13:06:56;;;;;;;11.65;2.95;;;8.60;99.90;;;;;;5133232;27;20558;-74
2021/12/19 13:09:24;;;;;;;;;;;8.60;99.90;;;;;;5131290;27;20351;-73
2021/12/19 13:11:53;;;;;;;12.02;2.70;;;8.60;99.90;;;;;;5131995;27;20474;-73
2021/12/19 13:14:23;;;;;;;12.15;3.10;;;8.60;99.90;;;;;;5129147;27;20047;-74
2021/12/19 13:16:52;;;;;;;13.13;3.35;;;8.50;99.90;;;;;;5121798;27;20104;-73
2021/12/19 13:19:37;;;;;;;15.00;3.90;;;8.50;99.90;;;;;;5129689;27;20063;-73
2021/12/19 13:22:07;;;;;;;8.80;2.75;;;8.50;99.90;;;;;;5131847;27;20118;-73
2021/12/19 13:24:35;;;;;;;13.33;3.90;;;8.50;99.90;;;;;;5127477;27;20446;-72
2021/12/19 13:27:07;;;;;;;13.13;3.97;;;8.50;99.90;;;;;;5126221;27;20103;-72
2021/12/19 13:29:34;;;;;;;15.75;4.13;;;8.50;99.90;;;;;;5130155;27;20086;-72
2021/12/19 13:32:27;;;;;;;16.27;4.38;;;8.50;99.90;;;;;;5131393;27;20087;-72
2021/12/19 13:34:54;;;;;;;18.05;4.95;;;8.50;99.90;;;;;;5129627;27;20059;-71
2021/12/19 13:37:24;;;;;;;19.85;5.00;;;8.60;99.90;;;;;;5130080;27;20047;-72
2021/12/19 13:40:04;;;;;;;13.30;4.00;;;8.60;99.90;;;;;;5130304;27;20092;-72
2021/12/19 13:42:39;;;;;;;16.70;4.93;;;8.70;99.90;;;;;;5129202;27;20051;-72
2021/12/19 13:45:36;;;;;;;13.55;3.45;;;8.70;99.90;;;;;;5126711;27;20103;-71
2021/12/19 13:48:07;;;;;;;13.07;3.63;;;8.70;99.90;;;;;;5119853;27;20407;-73
2021/12/19 13:50:40;;;;;;;18.05;4.55;;;8.70;99.90;;;;;;5126065;27;20507;-73
2021/12/19 13:53:08;;;;;;;12.68;3.67;;;8.70;99.90;;;;;;5125334;27;20055;-74